createdAt,value
2018-07-27T00:01:47.698Z,101463.25
2018-07-27T00:04:17.460Z,101463.25
2018-07-27T00:06:48.198Z,101463.25
2018-07-27T00:09:17.630Z,101456.55
2018-07-27T00:11:47.554Z,101459.72
2018-07-27T00:14:16.969Z,101451.91
2018-07-27T00:16:46.988Z,101455.84
2018-07-27T00:19:18.146Z,101453.02
2018-07-27T00:21:47.484Z,101460.33
2018-07-27T00:24:16.944Z,101456.19
2018-07-27T00:26:47.810Z,101451.88
2018-07-27T00:29:17.811Z,101456.42
2018-07-27T00:31:47.196Z,101453.59
2018-07-27T00:34:16.557Z,101452.30
2018-07-27T00:36:45.978Z,101452.47
2018-07-27T00:39:15.942Z,101451.75
2018-07-27T00:41:45.321Z,101453.39
2018-07-27T00:44:15.613Z,101448.20
2018-07-27T00:46:46.806Z,101452.85
2018-07-27T00:49:17.613Z,101450.08
2018-07-27T00:51:47.452Z,101448.64
2018-07-27T00:54:19.258Z,101447.59
2018-07-27T00:56:48.617Z,101445.09
2018-07-27T00:59:18.134Z,101441.77
2018-07-27T01:01:47.478Z,101444.73
2018-07-27T01:04:18.091Z,101440.58
2018-07-27T01:06:49.068Z,101441.33
2018-07-27T01:09:18.446Z,101441.70
2018-07-27T01:11:48.941Z,101436.52
2018-07-27T01:14:18.331Z,101440.44
2018-07-27T01:16:47.721Z,101442.63
2018-07-27T01:19:17.153Z,101434.84
2018-07-27T01:21:46.553Z,101439.40
2018-07-27T01:24:17.148Z,101437.78
2018-07-27T01:26:47.097Z,101434.31
2018-07-27T01:29:18.433Z,101434.34
2018-07-27T01:31:47.981Z,101433.73
2018-07-27T01:34:17.484Z,101431.36
2018-07-27T01:36:47.297Z,101428.30
2018-07-27T01:39:18.404Z,101433.86
2018-07-27T01:41:47.850Z,101438.96
2018-07-27T01:44:16.932Z,101434.02
2018-07-27T01:46:46.312Z,101433.67
2018-07-27T01:49:16.106Z,101433.80
2018-07-27T01:51:45.785Z,101434.69
2018-07-27T01:54:16.142Z,101438.02
2018-07-27T01:56:46.430Z,101437.44
2018-07-27T01:59:16.374Z,101433.00
2018-07-27T02:01:45.822Z,101431.60
2018-07-27T02:04:15.205Z,101429.69
2018-07-27T02:06:44.607Z,101424.44
2018-07-27T02:09:14.157Z,101427.38
2018-07-27T02:11:44.064Z,101425.80
2018-07-27T02:14:13.465Z,101427.10
2018-07-27T02:16:42.820Z,101422.76
2018-07-27T02:19:12.256Z,101417.74
2018-07-27T02:21:41.673Z,101422.42
2018-07-27T02:24:11.068Z,101420.34
2018-07-27T02:26:40.454Z,101417.33
2018-07-27T02:29:09.870Z,101415.30
2018-07-27T02:31:39.258Z,101419.17
2018-07-27T02:34:08.694Z,101408.61
2018-07-27T02:36:38.060Z,101413.60
2018-07-27T02:39:10.266Z,101411.06
2018-07-27T02:41:39.726Z,101414.89
2018-07-27T02:44:09.750Z,101408.62
2018-07-27T02:46:39.277Z,101410.36
2018-07-27T02:49:08.601Z,101404.73
2018-07-27T02:51:38.103Z,101407.61
2018-07-27T02:54:07.722Z,101409.02
2018-07-27T02:56:37.194Z,101410.48
2018-07-27T02:59:06.600Z,101407.22
2018-07-27T03:01:36.143Z,101400.56
2018-07-27T03:04:05.624Z,101406.61
2018-07-27T03:06:34.950Z,101404.48
2018-07-27T03:09:05.794Z,101399.63
2018-07-27T03:11:35.257Z,101400.82
2018-07-27T03:14:04.859Z,101402.29
2018-07-27T03:16:33.987Z,101394.97
2018-07-27T03:19:03.381Z,101401.16
2018-07-27T03:21:32.754Z,101407.36
2018-07-27T03:24:02.238Z,101407.79
2018-07-27T03:26:31.713Z,101406.25
2018-07-27T03:29:01.331Z,101405.88
2018-07-27T03:31:30.698Z,101402.00
2018-07-27T03:34:00.019Z,101406.20
2018-07-27T03:36:29.658Z,101411.48
2018-07-27T03:38:59.122Z,101404.23
2018-07-27T03:41:28.497Z,101400.48
2018-07-27T03:43:58.359Z,101403.13
2018-07-27T03:46:27.733Z,101403.84
2018-07-27T03:48:57.140Z,101406.31
2018-07-27T03:51:26.491Z,101405.36
2018-07-27T03:53:55.953Z,101402.97
2018-07-27T03:56:25.342Z,101410.45
2018-07-27T03:58:54.849Z,101411.34
2018-07-27T04:01:24.316Z,101406.42
2018-07-27T04:03:53.680Z,101401.01
2018-07-27T04:06:23.064Z,101404.73
2018-07-27T04:08:52.479Z,101402.52
2018-07-27T04:11:21.858Z,101404.89
2018-07-27T04:13:51.638Z,101406.67
2018-07-27T04:16:21.090Z,101404.69
2018-07-27T04:18:50.502Z,101413.69
2018-07-27T04:21:19.870Z,101417.70
2018-07-27T04:23:49.318Z,101417.67
2018-07-27T04:26:18.768Z,101408.69
2018-07-27T04:28:48.218Z,101409.83
2018-07-27T04:31:17.569Z,101412.50
2018-07-27T04:33:47.048Z,101409.39
2018-07-27T04:36:16.405Z,101409.84
2018-07-27T04:38:45.830Z,101415.59
2018-07-27T04:41:15.409Z,101421.57
2018-07-27T04:43:44.838Z,101409.23
2018-07-27T04:46:14.413Z,101410.36
2018-07-27T04:48:44.117Z,101417.31
2018-07-27T04:51:13.510Z,101419.52
2018-07-27T04:53:42.884Z,101419.56
2018-07-27T04:56:12.282Z,101420.77
2018-07-27T04:58:41.626Z,101421.72
2018-07-27T05:01:10.992Z,101422.60
2018-07-27T05:03:40.382Z,101423.44
2018-07-27T05:06:09.799Z,101416.52
2018-07-27T05:08:44.329Z,101419.64
2018-07-27T05:11:13.727Z,101424.13
2018-07-27T05:13:43.098Z,101423.98
2018-07-27T05:16:12.450Z,101428.81
2018-07-27T05:18:41.802Z,101429.21
2018-07-27T05:21:11.167Z,101423.70
2018-07-27T05:23:40.563Z,101422.70
2018-07-27T05:26:09.685Z,101430.00
2018-07-27T05:28:39.074Z,101427.20
2018-07-27T05:31:08.229Z,101422.89
2018-07-27T05:33:37.613Z,101425.34
2018-07-27T05:36:07.221Z,101424.77
2018-07-27T05:38:36.575Z,101427.47
2018-07-27T05:41:05.826Z,101422.55
2018-07-27T05:43:35.232Z,101423.55
2018-07-27T05:46:04.676Z,101414.86
2018-07-27T05:48:34.110Z,101410.55
2018-07-27T05:51:03.516Z,101419.59
2018-07-27T05:53:32.874Z,101416.17
2018-07-27T05:56:02.217Z,101414.75
2018-07-27T05:58:31.612Z,101411.03
2018-07-27T06:01:00.726Z,101411.14
2018-07-27T06:03:30.078Z,101412.55
2018-07-27T06:05:59.398Z,101411.58
2018-07-27T06:08:28.757Z,101419.41
2018-07-27T06:10:58.186Z,101419.38
2018-07-27T06:13:27.579Z,101411.20
2018-07-27T06:15:56.982Z,101418.94
2018-07-27T06:18:26.344Z,101417.63
2018-07-27T06:20:55.798Z,101413.30
2018-07-27T06:23:25.199Z,101413.52
2018-07-27T06:25:54.679Z,101414.84
2018-07-27T06:28:24.119Z,101415.89
2018-07-27T06:30:53.474Z,101412.26
2018-07-27T06:33:22.821Z,101411.02
2018-07-27T06:35:52.185Z,101420.33
2018-07-27T06:38:21.556Z,101423.57
2018-07-27T06:40:50.910Z,101419.86
2018-07-27T06:43:20.895Z,101419.64
2018-07-27T06:45:50.270Z,101416.20
2018-07-27T06:48:20.517Z,101413.13
2018-07-27T06:50:51.350Z,101409.87
2018-07-27T06:53:20.783Z,101408.48
2018-07-27T06:55:50.146Z,101414.63
2018-07-27T06:58:19.549Z,101408.69
2018-07-27T07:00:48.969Z,101404.81
2018-07-27T07:03:18.091Z,101404.91
2018-07-27T07:05:47.489Z,101400.88
2018-07-27T07:08:16.878Z,101399.45
2018-07-27T07:10:46.244Z,101401.00
2018-07-27T07:13:15.682Z,101402.47
2018-07-27T07:15:45.058Z,101400.66
2018-07-27T07:18:14.433Z,101401.17
2018-07-27T07:20:43.859Z,101400.84
2018-07-27T07:23:13.233Z,101400.08
2018-07-27T07:25:42.761Z,101397.13
2018-07-27T07:28:12.098Z,101398.94
2018-07-27T07:30:41.444Z,101397.92
2018-07-27T07:33:10.885Z,101395.11
2018-07-27T07:35:40.543Z,101397.00
2018-07-27T07:38:09.939Z,101395.86
2018-07-27T07:40:39.296Z,101390.61
2018-07-27T07:43:08.658Z,101390.92
2018-07-27T07:45:38.086Z,101386.83
2018-07-27T07:48:07.494Z,101379.77
2018-07-27T07:50:36.906Z,101382.85
2018-07-27T07:53:06.595Z,101390.80
2018-07-27T07:55:35.952Z,101387.52
2018-07-27T07:58:05.342Z,101380.16
2018-07-27T08:00:35.257Z,101383.98
2018-07-27T08:03:04.777Z,101380.25
2018-07-27T08:05:34.182Z,101373.51
2018-07-27T08:08:03.270Z,101377.32
2018-07-27T08:10:32.705Z,101379.94
2018-07-27T08:13:02.050Z,101377.47
2018-07-27T08:15:31.434Z,101375.52
2018-07-27T08:18:00.829Z,101372.42
2018-07-27T08:20:30.251Z,101371.14
2018-07-27T08:22:59.655Z,101375.83
2018-07-27T08:25:48.426Z,101380.18
2018-07-27T08:28:34.823Z,101369.11
2018-07-27T08:31:04.253Z,101368.67
2018-07-27T08:33:33.778Z,101367.14
2018-07-27T08:36:03.241Z,101362.42
2018-07-27T08:38:32.647Z,101370.00
2018-07-27T08:41:02.138Z,101362.09
2018-07-27T08:43:31.534Z,101363.22
2018-07-27T08:46:00.999Z,101363.59
2018-07-27T08:48:30.501Z,101359.23
2018-07-27T08:51:00.911Z,101361.27
2018-07-27T08:53:30.254Z,101351.98
2018-07-27T08:55:59.698Z,101356.50
2018-07-27T08:58:28.805Z,101354.84
2018-07-27T09:00:58.259Z,101351.30
2018-07-27T09:03:27.698Z,101340.83
2018-07-27T09:05:57.124Z,101350.62
2018-07-27T09:08:26.530Z,101342.42
2018-07-27T09:10:55.985Z,101338.05
2018-07-27T09:13:25.797Z,101343.09
2018-07-27T09:15:55.573Z,101324.27
2018-07-27T09:18:25.205Z,101333.36
2018-07-27T09:20:54.776Z,101323.66
2018-07-27T09:23:24.441Z,101319.54
2018-07-27T09:25:53.905Z,101322.92
2018-07-27T09:28:23.222Z,101317.97
2018-07-27T09:30:52.807Z,101323.18
2018-07-27T09:33:22.365Z,101324.09
2018-07-27T09:35:51.986Z,101312.73
2018-07-27T09:38:21.402Z,101316.66
2018-07-27T09:40:50.819Z,101313.69
2018-07-27T09:43:20.578Z,101313.55
2018-07-27T09:45:50.169Z,101313.02
2018-07-27T09:48:19.632Z,101309.45
2018-07-27T09:50:49.073Z,101313.77
2018-07-27T09:53:18.472Z,101313.64
2018-07-27T09:55:48.452Z,101310.70
2018-07-27T09:58:17.897Z,101297.86
2018-07-27T10:00:52.564Z,101308.00
2018-07-27T10:03:22.128Z,101304.81
2018-07-27T10:05:51.523Z,101302.89
2018-07-27T10:08:20.922Z,101305.14
2018-07-27T10:10:50.306Z,101296.88
2018-07-27T10:13:20.381Z,101291.43
2018-07-27T10:15:49.725Z,101297.67
2018-07-27T10:18:19.838Z,101298.11
2018-07-27T10:20:49.478Z,101294.28
2018-07-27T10:23:18.809Z,101289.22
2018-07-27T10:25:48.221Z,101283.59
2018-07-27T10:28:18.015Z,101293.98
2018-07-27T10:30:47.753Z,101287.34
2018-07-27T10:33:20.760Z,101275.77
2018-07-27T10:35:50.243Z,101267.94
2018-07-27T10:38:20.122Z,101276.98
2018-07-27T10:40:49.530Z,101272.22
2018-07-27T10:43:19.418Z,101266.80
2018-07-27T10:45:48.788Z,101272.77
2018-07-27T10:48:18.081Z,101263.90
2018-07-27T10:50:48.017Z,101261.13
2018-07-27T10:53:17.433Z,101258.70
2018-07-27T10:55:46.857Z,101267.30
2018-07-27T10:58:16.899Z,101259.98
2018-07-27T11:00:46.302Z,101256.58
2018-07-27T11:03:17.067Z,101245.32
2018-07-27T11:05:46.413Z,101249.14
2018-07-27T11:08:15.960Z,101248.08
2018-07-27T11:10:45.325Z,101242.14
2018-07-27T11:13:14.763Z,101245.72
2018-07-27T11:15:44.153Z,101235.45
2018-07-27T11:18:13.545Z,101219.34
2018-07-27T11:20:42.878Z,101236.74
2018-07-27T11:23:12.474Z,101227.86
2018-07-27T11:25:41.940Z,101226.34
2018-07-27T11:28:11.246Z,101225.00
2018-07-27T11:30:40.665Z,101220.89
2018-07-27T11:33:10.086Z,101210.88
2018-07-27T11:35:39.522Z,101210.74
2018-07-27T11:38:08.981Z,101207.41
2018-07-27T11:40:38.415Z,101203.73
2018-07-27T11:43:07.905Z,101205.78
2018-07-27T11:45:37.281Z,101205.34
2018-07-27T11:48:06.712Z,101191.59
2018-07-27T11:50:36.126Z,101188.45
2018-07-27T11:53:05.550Z,101188.31
2018-07-27T11:55:34.889Z,101180.81
2018-07-27T11:58:04.357Z,101180.13
2018-07-27T12:00:33.750Z,101179.08
2018-07-27T12:03:03.414Z,101178.62
2018-07-27T12:05:32.817Z,101179.09
2018-07-27T12:08:02.186Z,101183.41
2018-07-27T12:10:31.577Z,101166.31
2018-07-27T12:13:01.049Z,101169.52
2018-07-27T12:15:30.197Z,101169.87
2018-07-27T12:17:59.607Z,101163.05
2018-07-27T12:20:29.170Z,101153.02
2018-07-27T12:22:58.602Z,101161.88
2018-07-27T12:25:28.081Z,101156.41
2018-07-27T12:27:58.166Z,101151.84
2018-07-27T12:30:27.555Z,101152.44
2018-07-27T12:32:57.945Z,101149.67
2018-07-27T12:35:27.425Z,101148.11
2018-07-27T12:37:57.082Z,101147.50
2018-07-27T12:40:27.999Z,101132.32
2018-07-27T12:42:57.714Z,101132.37
2018-07-27T12:45:28.587Z,101140.37
2018-07-27T12:47:58.178Z,101121.59
2018-07-27T12:50:27.546Z,101112.38
2018-07-27T12:52:57.937Z,101122.82
2018-07-27T12:55:27.718Z,101125.94
2018-07-27T12:57:57.145Z,101113.70
2018-07-27T13:00:27.076Z,101117.19
2018-07-27T13:02:56.822Z,101119.82
2018-07-27T13:05:26.182Z,101107.02
2018-07-27T13:07:55.644Z,101120.73
2018-07-27T13:10:25.542Z,101111.66
2018-07-27T13:12:55.595Z,101108.36
2018-07-27T13:15:26.118Z,101109.02
2018-07-27T13:17:56.038Z,101099.48
2018-07-27T13:20:32.865Z,101098.25
2018-07-27T13:23:02.323Z,101091.46
2018-07-27T13:25:31.749Z,101090.03
2018-07-27T13:28:03.190Z,101088.77
2018-07-27T13:30:32.576Z,101093.12
2018-07-27T13:33:02.811Z,101093.30
2018-07-27T13:38:02.208Z,101074.14
2018-07-27T13:40:32.159Z,101086.77
2018-07-27T13:43:03.053Z,101082.19
2018-07-27T13:45:32.690Z,101080.02
2018-07-27T13:48:02.553Z,101065.63
2018-07-27T13:50:32.010Z,101065.05
2018-07-27T13:53:02.741Z,101068.42
2018-07-27T13:55:32.474Z,101075.46
2018-07-27T13:58:02.876Z,101066.78
2018-07-27T14:00:32.391Z,101066.17
2018-07-27T14:03:01.910Z,101070.68
2018-07-27T14:05:31.969Z,101055.38
2018-07-27T14:08:01.835Z,101056.00
2018-07-27T14:10:31.481Z,101058.24
2018-07-27T14:13:01.974Z,101061.03
2018-07-27T14:15:31.797Z,101059.59
2018-07-27T14:18:01.010Z,101059.48
2018-07-27T14:20:31.219Z,101050.37
2018-07-27T14:23:00.394Z,101054.58
2018-07-27T14:25:30.318Z,101047.73
2018-07-27T14:27:59.686Z,101044.22
2018-07-27T14:30:29.062Z,101047.55
2018-07-27T14:32:58.419Z,101035.80
2018-07-27T14:35:27.857Z,101046.11
2018-07-27T14:37:57.792Z,101032.16
2018-07-27T14:40:27.237Z,101038.39
2018-07-27T14:42:56.658Z,101034.77
2018-07-27T14:45:26.078Z,101020.32
2018-07-27T14:47:55.570Z,101025.52
2018-07-27T14:50:24.973Z,101015.80
2018-07-27T14:52:54.376Z,101017.64
2018-07-27T14:55:23.761Z,101012.83
2018-07-27T14:57:53.153Z,101015.78
2018-07-27T15:00:22.582Z,101006.41
2018-07-27T15:02:52.070Z,101004.33
2018-07-27T15:05:21.505Z,101006.45
2018-07-27T15:07:50.934Z,101002.42
2018-07-27T15:10:20.380Z,100996.81
2018-07-27T15:12:49.817Z,101010.71
2018-07-27T15:15:19.207Z,101007.77
2018-07-27T15:17:48.879Z,101002.14
2018-07-27T15:20:18.270Z,101004.42
2018-07-27T15:22:47.722Z,101007.33
2018-07-27T15:25:17.167Z,101009.54
2018-07-27T15:27:47.589Z,101010.09
2018-07-27T15:30:17.347Z,101000.92
2018-07-27T15:32:46.830Z,101006.31
2018-07-27T15:35:16.278Z,101010.09
2018-07-27T15:37:45.795Z,101002.78
2018-07-27T15:40:15.401Z,101003.42
2018-07-27T15:42:44.846Z,101000.95
2018-07-27T15:45:14.277Z,100995.20
2018-07-27T15:47:43.702Z,100998.08
2018-07-27T15:50:13.138Z,101004.91
2018-07-27T15:52:42.509Z,100994.83
2018-07-27T15:55:11.902Z,100999.87
2018-07-27T15:57:41.465Z,101002.09
2018-07-27T16:00:11.254Z,100993.45
2018-07-27T16:02:40.659Z,100991.71
2018-07-27T16:05:10.037Z,100992.87
2018-07-27T16:07:39.446Z,100995.41
2018-07-27T16:10:09.098Z,100994.95
2018-07-27T16:12:38.514Z,100994.52
2018-07-27T16:15:08.130Z,100988.86
2018-07-27T16:17:37.563Z,100988.14
2018-07-27T16:20:06.818Z,100995.91
2018-07-27T16:22:37.793Z,100976.89
2018-07-27T16:25:07.434Z,100979.58
2018-07-27T16:27:37.061Z,100977.39
2018-07-27T16:30:07.214Z,100980.80
2018-07-27T16:32:36.881Z,100977.88
2018-07-27T16:35:06.394Z,100977.44
2018-07-27T16:37:35.897Z,100975.96
2018-07-27T16:40:05.897Z,100969.69
2018-07-27T16:42:35.335Z,100983.41
2018-07-27T16:45:04.853Z,100974.73
2018-07-27T16:47:34.230Z,100955.85
2018-07-27T16:50:03.714Z,100974.20
2018-07-27T16:52:33.150Z,100961.94
2018-07-27T16:55:02.511Z,100965.43
2018-07-27T16:57:31.871Z,100962.56
2018-07-27T17:00:01.345Z,100970.22
2018-07-27T17:02:30.722Z,100975.80
2018-07-27T17:05:00.088Z,100975.18
2018-07-27T17:07:29.461Z,100962.48
2018-07-27T17:09:59.182Z,100975.94
2018-07-27T17:12:28.669Z,100974.00
2018-07-27T17:14:58.066Z,100966.36
2018-07-27T17:17:27.431Z,100961.17
2018-07-27T17:19:56.934Z,100956.00
2018-07-27T17:22:26.237Z,100955.22
2018-07-27T17:24:55.813Z,100965.83
2018-07-27T17:27:24.992Z,100964.59
2018-07-27T17:29:54.343Z,100960.55
2018-07-27T17:32:23.735Z,100958.55
2018-07-27T17:34:53.141Z,100955.36
2018-07-27T17:37:22.581Z,100951.65
2018-07-27T17:39:51.717Z,100966.31
2018-07-27T17:42:21.077Z,100968.70
2018-07-27T17:44:50.216Z,100964.58
2018-07-27T17:47:19.593Z,100964.02
2018-07-27T17:49:49.137Z,100977.74
2018-07-27T17:52:18.521Z,100971.02
2018-07-27T17:54:48.088Z,100975.47
2018-07-27T17:57:17.437Z,100979.84
2018-07-27T17:59:47.018Z,100979.84
2018-07-27T18:02:16.558Z,100981.12
2018-07-27T18:04:45.954Z,100988.70
2018-07-27T18:07:15.587Z,100984.80
2018-07-27T18:09:44.849Z,100984.30
2018-07-27T18:12:14.260Z,100977.19
2018-07-27T18:14:43.655Z,100976.80
2018-07-27T18:17:13.068Z,100973.38
2018-07-27T18:19:42.394Z,100984.67
2018-07-27T18:22:11.917Z,100984.99
2018-07-27T18:24:41.493Z,100984.44
2018-07-27T18:27:10.960Z,100989.48
2018-07-27T18:29:40.717Z,100986.48
2018-07-27T18:32:10.174Z,100986.36
2018-07-27T18:34:39.578Z,100989.79
2018-07-27T18:37:08.974Z,100996.05
2018-07-27T18:39:38.448Z,101002.07
2018-07-27T18:42:08.118Z,101002.27
2018-07-27T18:44:37.927Z,100993.99
2018-07-27T18:47:07.369Z,101001.86
2018-07-27T18:49:36.875Z,100996.91
2018-07-27T18:52:06.334Z,101002.41
2018-07-27T18:54:35.780Z,100999.92
2018-07-27T18:57:05.610Z,100998.45
2018-07-27T18:59:34.951Z,100999.53
2018-07-27T19:02:04.520Z,100998.67
2018-07-27T19:04:33.602Z,100993.48
2018-07-27T19:07:02.996Z,100993.00
2018-07-27T19:09:32.403Z,100995.25
2018-07-27T19:12:01.754Z,100994.05
2018-07-27T19:14:31.166Z,100990.44
2018-07-27T19:17:00.585Z,100992.20
2018-07-27T19:19:30.034Z,100993.66
2018-07-27T19:21:59.546Z,100986.38
2018-07-27T19:24:29.034Z,100978.55
2018-07-27T19:26:58.548Z,100978.45
2018-07-27T19:29:27.921Z,100975.94
2018-07-27T19:31:57.453Z,100979.33
2018-07-27T19:34:26.926Z,100974.73
2018-07-27T19:36:56.326Z,100972.95
2018-07-27T19:39:25.677Z,100974.34
2018-07-27T19:41:54.844Z,100972.70
2018-07-27T19:44:24.228Z,100972.56
2018-07-27T19:46:53.789Z,100966.19
2018-07-27T19:49:23.143Z,100975.71
2018-07-27T19:51:52.643Z,100976.25
2018-07-27T19:54:22.199Z,100973.19
2018-07-27T19:56:51.566Z,100969.20
2018-07-27T19:59:20.982Z,100973.73
2018-07-27T20:01:50.351Z,100968.52
2018-07-27T20:04:19.766Z,100973.77
2018-07-27T20:06:49.177Z,100970.00
2018-07-27T20:09:18.558Z,100971.66
2018-07-27T20:11:47.980Z,100968.05
2018-07-27T20:14:17.369Z,100970.61
2018-07-27T20:16:46.732Z,100971.98
2018-07-27T20:19:16.101Z,100969.42
2018-07-27T20:21:45.606Z,100971.88
2018-07-27T20:24:14.994Z,100965.20
2018-07-27T20:26:44.395Z,100954.86
2018-07-27T20:29:13.856Z,100959.91
2018-07-27T20:31:43.259Z,100962.30
2018-07-27T20:34:12.634Z,100961.25
2018-07-27T20:36:42.095Z,100954.41
2018-07-27T20:39:13.321Z,100959.23
2018-07-27T20:41:43.405Z,100953.13
2018-07-27T20:44:13.186Z,100952.08
2018-07-27T20:46:42.561Z,100951.95
2018-07-27T20:49:11.731Z,100950.38
2018-07-27T20:51:41.066Z,100952.80
2018-07-27T20:54:10.822Z,100954.39
2018-07-27T20:56:40.878Z,100950.17
2018-07-27T20:59:10.337Z,100945.73
2018-07-27T21:01:39.794Z,100946.05
2018-07-27T21:04:09.929Z,100943.59
2018-07-27T21:06:39.293Z,100939.98
2018-07-27T21:09:10.382Z,100938.25
2018-07-27T21:11:40.175Z,100933.41
2018-07-27T21:14:09.841Z,100943.97
2018-07-27T21:16:39.362Z,100934.76
2018-07-27T21:19:08.894Z,100930.93
2018-07-27T21:21:38.409Z,100932.89
2018-07-27T21:24:09.125Z,100924.47
2018-07-27T21:26:38.627Z,100917.11
2018-07-27T21:29:08.154Z,100916.34
2018-07-27T21:31:37.659Z,100915.22
2018-07-27T21:34:07.029Z,100911.69
2018-07-27T21:36:36.467Z,100915.75
2018-07-27T21:39:09.267Z,100908.63
2018-07-27T21:41:38.691Z,100911.63
2018-07-27T21:44:08.121Z,100910.50
2018-07-27T21:46:37.549Z,100906.00
2018-07-27T21:49:07.159Z,100908.31
2018-07-27T21:51:37.349Z,100908.02
2018-07-27T21:54:06.823Z,100912.76
2018-07-27T21:56:36.199Z,100910.86
2018-07-27T21:59:05.781Z,100905.39
2018-07-27T22:01:35.321Z,100905.98
2018-07-27T22:04:04.827Z,100905.97
2018-07-27T22:06:34.251Z,100900.88
2018-07-27T22:09:04.272Z,100900.78
2018-07-27T22:11:33.743Z,100897.82
2018-07-27T22:14:03.354Z,100897.98
2018-07-27T22:16:32.886Z,100893.63
2018-07-27T22:19:02.263Z,100888.80
2018-07-27T22:21:32.095Z,100894.03
2018-07-27T22:24:01.694Z,100893.78
2018-07-27T22:26:31.134Z,100888.83
2018-07-27T22:29:00.729Z,100894.70
2018-07-27T22:31:30.152Z,100888.63
2018-07-27T22:33:59.540Z,100895.81
2018-07-27T22:36:28.996Z,100901.19
2018-07-27T22:38:58.736Z,100900.50
2018-07-27T22:43:56.617Z,100904.03
2018-07-27T22:46:26.125Z,100902.45
2018-07-27T22:48:55.616Z,100893.89
2018-07-27T22:51:25.555Z,100896.88
2018-07-27T22:53:54.927Z,100895.91
2018-07-27T22:56:24.347Z,100900.31
2018-07-27T22:58:53.814Z,100898.73
2018-07-27T23:01:23.194Z,100898.27
2018-07-27T23:03:52.627Z,100912.49
2018-07-27T23:06:21.988Z,100912.54
2018-07-27T23:08:51.391Z,100907.27
2018-07-27T23:11:21.410Z,100905.06
2018-07-27T23:13:50.991Z,100901.30
2018-07-27T23:16:20.372Z,100904.19
2018-07-27T23:18:50.130Z,100902.27
2018-07-27T23:21:19.467Z,100902.73
2018-07-27T23:23:48.871Z,100896.03
2018-07-27T23:26:18.323Z,100898.22
2018-07-27T23:28:47.713Z,100897.13
2018-07-27T23:31:17.093Z,100898.70
2018-07-27T23:33:46.489Z,100905.14
2018-07-27T23:36:16.031Z,100900.05
2018-07-27T23:38:45.705Z,100897.72
2018-07-27T23:41:15.121Z,100890.97
2018-07-27T23:43:45.481Z,100886.92
2018-07-27T23:46:14.870Z,100894.09
2018-07-27T23:48:44.385Z,100898.85
2018-07-27T23:51:13.895Z,100908.35
2018-07-27T23:53:43.302Z,100903.33
2018-07-27T23:56:12.622Z,100904.47
2018-07-27T23:58:42.030Z,100898.94
